KHWO/HWO METAR and TAF weather

Enter ICAO airport designator
Station Type Date Time Source
KHWO METAR 2024/06/14 03:02 UTC NOAA

KHWO 140302Z 15005KT -RA SCT023 BKN028 BKN050 26/24 A2995 RMK AO2 P0000 T02560239 $


Station Type Date Time Source
KHWO Decoded METAR 2024/06/14 03:02 UTC NOAA

HOLLYWOOD NORTH PERRY AIRPORT , FL, United States (KHWO) 26-00N 080-14W 2M
Jun 13, 2024 - 11:02 PM EDT / 2024.06.14 0302 UTC
Wind: from the SSE (150 degrees) at 6 MPH (5 KT):0
Sky conditions: mostly cloudy
Weather: light rain
Precipitation last hour: A trace
Temperature: 78.1 F (25.6 C)
Dew Point: 75.0 F (23.9 C)
Relative Humidity: 90%
Pressure (altimeter): 29.95 in. Hg (1014 hPa)
ob: KHWO 140302Z 15005KT -RA SCT023 BKN028 BKN050 26/24 A2995 RMK AO2 P0000 T02560239
cycle: 3

Station Type Date Time Source
KHWO TAF 2020/02/03 18:20 UTC NOAA